sensor_id;sensor_type;location;lat;lon;timestamp;P1;durP1;ratioP1;P2;durP2;ratioP2
20067;SDS011;10194;50.824;7.134;2023-12-20T00:01:39;58.23;;;47.90;;
20067;SDS011;10194;50.824;7.134;2023-12-20T00:04:05;57.50;;;47.67;;
20067;SDS011;10194;50.824;7.134;2023-12-20T00:06:31;59.73;;;48.57;;
20067;SDS011;10194;50.824;7.134;2023-12-20T00:08:57;58.50;;;48.00;;
20067;SDS011;10194;50.824;7.134;2023-12-20T00:11:23;57.37;;;47.63;;
20067;SDS011;10194;50.824;7.134;2023-12-20T00:13:49;57.77;;;47.70;;
20067;SDS011;10194;50.824;7.134;2023-12-20T00:16:15;58.07;;;47.80;;
20067;SDS011;10194;50.824;7.134;2023-12-20T00:18:40;57.30;;;47.40;;
20067;SDS011;10194;50.824;7.134;2023-12-20T00:21:06;56.37;;;46.97;;
20067;SDS011;10194;50.824;7.134;2023-12-20T00:23:32;57.30;;;47.60;;
20067;SDS011;10194;50.824;7.134;2023-12-20T00:25:58;57.00;;;47.30;;
20067;SDS011;10194;50.824;7.134;2023-12-20T00:28:23;56.70;;;47.13;;
20067;SDS011;10194;50.824;7.134;2023-12-20T00:30:49;57.03;;;47.33;;
20067;SDS011;10194;50.824;7.134;2023-12-20T00:33:15;56.40;;;47.00;;
20067;SDS011;10194;50.824;7.134;2023-12-20T00:35:41;60.20;;;48.90;;
20067;SDS011;10194;50.824;7.134;2023-12-20T00:38:06;56.70;;;47.13;;
20067;SDS011;10194;50.824;7.134;2023-12-20T00:40:33;56.70;;;47.20;;
20067;SDS011;10194;50.824;7.134;2023-12-20T00:42:59;56.70;;;47.10;;
20067;SDS011;10194;50.824;7.134;2023-12-20T00:45:25;56.20;;;46.90;;
20067;SDS011;10194;50.824;7.134;2023-12-20T00:47:51;56.20;;;46.90;;
20067;SDS011;10194;50.824;7.134;2023-12-20T00:50:17;56.77;;;47.17;;
20067;SDS011;10194;50.824;7.134;2023-12-20T00:52:42;57.10;;;47.30;;
20067;SDS011;10194;50.824;7.134;2023-12-20T00:55:08;56.13;;;46.87;;
20067;SDS011;10194;50.824;7.134;2023-12-20T00:57:34;56.33;;;47.00;;
20067;SDS011;10194;50.824;7.134;2023-12-20T01:00:00;55.97;;;46.80;;
20067;SDS011;10194;50.824;7.134;2023-12-20T01:02:26;56.40;;;46.93;;
20067;SDS011;10194;50.824;7.134;2023-12-20T01:04:51;57.13;;;47.33;;
20067;SDS011;10194;50.824;7.134;2023-12-20T01:07:17;57.27;;;47.40;;
20067;SDS011;10194;50.824;7.134;2023-12-20T01:09:43;57.70;;;47.67;;
20067;SDS011;10194;50.824;7.134;2023-12-20T01:12:09;56.50;;;46.97;;
20067;SDS011;10194;50.824;7.134;2023-12-20T01:14:35;56.57;;;46.97;;
20067;SDS011;10194;50.824;7.134;2023-12-20T01:17:01;56.37;;;46.97;;
20067;SDS011;10194;50.824;7.134;2023-12-20T01:19:27;56.10;;;46.80;;
20067;SDS011;10194;50.824;7.134;2023-12-20T01:21:54;57.40;;;47.53;;
20067;SDS011;10194;50.824;7.134;2023-12-20T01:24:20;57.13;;;47.30;;
20067;SDS011;10194;50.824;7.134;2023-12-20T01:26:46;56.10;;;46.80;;
20067;SDS011;10194;50.824;7.134;2023-12-20T01:29:12;56.57;;;47.20;;
20067;SDS011;10194;50.824;7.134;2023-12-20T01:31:39;58.67;;;48.17;;
20067;SDS011;10194;50.824;7.134;2023-12-20T01:34:05;56.43;;;46.93;;
20067;SDS011;10194;50.824;7.134;2023-12-20T01:36:31;57.97;;;47.47;;
20067;SDS011;10194;50.824;7.134;2023-12-20T01:38:57;56.00;;;46.80;;
20067;SDS011;10194;50.824;7.134;2023-12-20T01:41:23;56.80;;;47.10;;
20067;SDS011;10194;50.824;7.134;2023-12-20T01:43:48;55.90;;;46.73;;
20067;SDS011;10194;50.824;7.134;2023-12-20T01:46:14;55.93;;;46.87;;
20067;SDS011;10194;50.824;7.134;2023-12-20T01:48:41;56.17;;;46.87;;
20067;SDS011;10194;50.824;7.134;2023-12-20T01:51:07;55.90;;;46.73;;
20067;SDS011;10194;50.824;7.134;2023-12-20T01:53:33;55.73;;;46.60;;
20067;SDS011;10194;50.824;7.134;2023-12-20T01:55:59;55.90;;;46.70;;
20067;SDS011;10194;50.824;7.134;2023-12-20T01:58:25;56.07;;;46.77;;
20067;SDS011;10194;50.824;7.134;2023-12-20T02:00:51;56.93;;;47.30;;
20067;SDS011;10194;50.824;7.134;2023-12-20T02:03:17;56.97;;;47.23;;
20067;SDS011;10194;50.824;7.134;2023-12-20T02:05:43;59.37;;;48.50;;
20067;SDS011;10194;50.824;7.134;2023-12-20T02:08:11;55.90;;;46.77;;
20067;SDS011;10194;50.824;7.134;2023-12-20T02:10:36;55.73;;;46.60;;
20067;SDS011;10194;50.824;7.134;2023-12-20T02:13:03;55.20;;;46.17;;
20067;SDS011;10194;50.824;7.134;2023-12-20T02:15:29;56.93;;;47.17;;
20067;SDS011;10194;50.824;7.134;2023-12-20T02:17:55;55.40;;;46.30;;
20067;SDS011;10194;50.824;7.134;2023-12-20T02:20:21;56.03;;;46.73;;
20067;SDS011;10194;50.824;7.134;2023-12-20T02:22:47;54.90;;;46.07;;
20067;SDS011;10194;50.824;7.134;2023-12-20T02:25:13;55.10;;;46.20;;
20067;SDS011;10194;50.824;7.134;2023-12-20T02:27:39;55.70;;;46.40;;
20067;SDS011;10194;50.824;7.134;2023-12-20T02:30:05;55.67;;;46.47;;
20067;SDS011;10194;50.824;7.134;2023-12-20T02:32:32;55.70;;;46.53;;
20067;SDS011;10194;50.824;7.134;2023-12-20T02:34:57;55.50;;;46.40;;
20067;SDS011;10194;50.824;7.134;2023-12-20T02:37:23;55.33;;;46.37;;
20067;SDS011;10194;50.824;7.134;2023-12-20T02:39:49;55.27;;;46.17;;
20067;SDS011;10194;50.824;7.134;2023-12-20T02:42:15;55.63;;;46.37;;
20067;SDS011;10194;50.824;7.134;2023-12-20T02:44:41;54.93;;;46.10;;
20067;SDS011;10194;50.824;7.134;2023-12-20T02:47:06;55.30;;;46.23;;
20067;SDS011;10194;50.824;7.134;2023-12-20T02:49:32;55.60;;;46.23;;
20067;SDS011;10194;50.824;7.134;2023-12-20T02:51:58;54.70;;;45.80;;
20067;SDS011;10194;50.824;7.134;2023-12-20T02:54:23;54.10;;;45.67;;
20067;SDS011;10194;50.824;7.134;2023-12-20T02:56:49;54.53;;;45.73;;
20067;SDS011;10194;50.824;7.134;2023-12-20T02:59:15;54.30;;;45.70;;
20067;SDS011;10194;50.824;7.134;2023-12-20T03:01:44;54.00;;;45.43;;
20067;SDS011;10194;50.824;7.134;2023-12-20T03:04:11;54.00;;;45.30;;
20067;SDS011;10194;50.824;7.134;2023-12-20T03:06:37;54.03;;;45.40;;
20067;SDS011;10194;50.824;7.134;2023-12-20T03:09:03;54.30;;;45.63;;
20067;SDS011;10194;50.824;7.134;2023-12-20T03:11:29;54.73;;;45.80;;
20067;SDS011;10194;50.824;7.134;2023-12-20T03:13:56;54.80;;;45.97;;
20067;SDS011;10194;50.824;7.134;2023-12-20T03:16:22;54.30;;;45.53;;
20067;SDS011;10194;50.824;7.134;2023-12-20T03:18:48;54.47;;;45.40;;
20067;SDS011;10194;50.824;7.134;2023-12-20T03:21:14;54.77;;;45.90;;
20067;SDS011;10194;50.824;7.134;2023-12-20T03:23:40;55.63;;;46.20;;
20067;SDS011;10194;50.824;7.134;2023-12-20T03:26:07;54.40;;;45.73;;
20067;SDS011;10194;50.824;7.134;2023-12-20T03:28:33;54.80;;;45.97;;
20067;SDS011;10194;50.824;7.134;2023-12-20T03:30:59;54.40;;;45.63;;
20067;SDS011;10194;50.824;7.134;2023-12-20T03:33:25;55.10;;;46.20;;
20067;SDS011;10194;50.824;7.134;2023-12-20T03:35:51;55.10;;;46.07;;
20067;SDS011;10194;50.824;7.134;2023-12-20T03:38:17;55.20;;;46.03;;
20067;SDS011;10194;50.824;7.134;2023-12-20T03:40:42;55.00;;;46.00;;
20067;SDS011;10194;50.824;7.134;2023-12-20T03:43:08;55.13;;;46.07;;
20067;SDS011;10194;50.824;7.134;2023-12-20T03:45:34;56.73;;;47.00;;
20067;SDS011;10194;50.824;7.134;2023-12-20T03:48:00;54.47;;;45.80;;
20067;SDS011;10194;50.824;7.134;2023-12-20T03:50:26;54.60;;;45.90;;
20067;SDS011;10194;50.824;7.134;2023-12-20T03:52:52;54.87;;;45.90;;
20067;SDS011;10194;50.824;7.134;2023-12-20T03:55:18;54.77;;;45.97;;
20067;SDS011;10194;50.824;7.134;2023-12-20T03:57:44;55.40;;;46.10;;
20067;SDS011;10194;50.824;7.134;2023-12-20T04:00:10;54.83;;;46.00;;
20067;SDS011;10194;50.824;7.134;2023-12-20T04:02:40;55.50;;;46.37;;
20067;SDS011;10194;50.824;7.134;2023-12-20T04:05:07;55.07;;;46.07;;
20067;SDS011;10194;50.824;7.134;2023-12-20T04:07:34;55.40;;;46.43;;
20067;SDS011;10194;50.824;7.134;2023-12-20T04:10:00;54.90;;;46.20;;
20067;SDS011;10194;50.824;7.134;2023-12-20T04:12:27;56.47;;;46.60;;
20067;SDS011;10194;50.824;7.134;2023-12-20T04:14:53;55.00;;;46.20;;
20067;SDS011;10194;50.824;7.134;2023-12-20T04:17:19;57.60;;;47.53;;
20067;SDS011;10194;50.824;7.134;2023-12-20T04:19:47;55.00;;;46.10;;
20067;SDS011;10194;50.824;7.134;2023-12-20T04:22:17;55.57;;;46.47;;
20067;SDS011;10194;50.824;7.134;2023-12-20T04:24:43;55.47;;;46.40;;
20067;SDS011;10194;50.824;7.134;2023-12-20T04:27:10;54.73;;;46.00;;
20067;SDS011;10194;50.824;7.134;2023-12-20T04:29:36;55.93;;;46.40;;
20067;SDS011;10194;50.824;7.134;2023-12-20T04:32:02;55.80;;;46.43;;
20067;SDS011;10194;50.824;7.134;2023-12-20T04:34:28;55.43;;;46.30;;
20067;SDS011;10194;50.824;7.134;2023-12-20T04:36:53;54.80;;;45.90;;
20067;SDS011;10194;50.824;7.134;2023-12-20T04:39:19;55.40;;;46.23;;
20067;SDS011;10194;50.824;7.134;2023-12-20T04:41:45;54.77;;;45.87;;
20067;SDS011;10194;50.824;7.134;2023-12-20T04:44:12;54.87;;;45.97;;
20067;SDS011;10194;50.824;7.134;2023-12-20T04:46:38;54.87;;;45.90;;
20067;SDS011;10194;50.824;7.134;2023-12-20T04:49:04;54.97;;;46.07;;
20067;SDS011;10194;50.824;7.134;2023-12-20T04:51:32;54.80;;;45.90;;
20067;SDS011;10194;50.824;7.134;2023-12-20T04:53:59;55.57;;;46.27;;
20067;SDS011;10194;50.824;7.134;2023-12-20T04:56:26;56.00;;;46.70;;
20067;SDS011;10194;50.824;7.134;2023-12-20T04:58:52;55.00;;;46.20;;
20067;SDS011;10194;50.824;7.134;2023-12-20T05:01:17;55.10;;;46.00;;
20067;SDS011;10194;50.824;7.134;2023-12-20T05:03:43;55.30;;;46.30;;
20067;SDS011;10194;50.824;7.134;2023-12-20T05:06:09;55.10;;;46.10;;
20067;SDS011;10194;50.824;7.134;2023-12-20T05:08:35;55.83;;;46.53;;
20067;SDS011;10194;50.824;7.134;2023-12-20T05:11:01;55.77;;;46.37;;
20067;SDS011;10194;50.824;7.134;2023-12-20T05:13:27;55.83;;;46.40;;
20067;SDS011;10194;50.824;7.134;2023-12-20T05:15:53;55.47;;;46.37;;
20067;SDS011;10194;50.824;7.134;2023-12-20T05:18:19;55.13;;;46.03;;
20067;SDS011;10194;50.824;7.134;2023-12-20T05:20:46;55.03;;;45.97;;
20067;SDS011;10194;50.824;7.134;2023-12-20T05:23:12;54.60;;;45.80;;
20067;SDS011;10194;50.824;7.134;2023-12-20T05:25:38;58.20;;;47.70;;
20067;SDS011;10194;50.824;7.134;2023-12-20T05:28:04;55.27;;;46.37;;
20067;SDS011;10194;50.824;7.134;2023-12-20T05:30:30;54.60;;;46.00;;
20067;SDS011;10194;50.824;7.134;2023-12-20T05:32:56;54.50;;;45.80;;
20067;SDS011;10194;50.824;7.134;2023-12-20T05:35:22;54.80;;;45.93;;
20067;SDS011;10194;50.824;7.134;2023-12-20T05:37:48;55.00;;;45.90;;
20067;SDS011;10194;50.824;7.134;2023-12-20T05:40:14;55.73;;;46.30;;
20067;SDS011;10194;50.824;7.134;2023-12-20T05:42:40;55.03;;;46.10;;
20067;SDS011;10194;50.824;7.134;2023-12-20T05:45:06;55.50;;;46.17;;
20067;SDS011;10194;50.824;7.134;2023-12-20T05:47:32;57.10;;;47.03;;
20067;SDS011;10194;50.824;7.134;2023-12-20T05:49:58;55.07;;;46.03;;
20067;SDS011;10194;50.824;7.134;2023-12-20T05:52:24;54.77;;;45.90;;
20067;SDS011;10194;50.824;7.134;2023-12-20T05:54:49;55.03;;;46.03;;
20067;SDS011;10194;50.824;7.134;2023-12-20T05:57:15;55.40;;;46.37;;
20067;SDS011;10194;50.824;7.134;2023-12-20T05:59:41;55.33;;;46.17;;
20067;SDS011;10194;50.824;7.134;2023-12-20T06:02:07;55.07;;;46.10;;
20067;SDS011;10194;50.824;7.134;2023-12-20T06:04:32;54.83;;;46.00;;
20067;SDS011;10194;50.824;7.134;2023-12-20T06:06:58;54.80;;;45.90;;
20067;SDS011;10194;50.824;7.134;2023-12-20T06:09:24;55.57;;;46.47;;
20067;SDS011;10194;50.824;7.134;2023-12-20T06:11:52;55.33;;;46.20;;
20067;SDS011;10194;50.824;7.134;2023-12-20T06:14:17;54.87;;;46.00;;
20067;SDS011;10194;50.824;7.134;2023-12-20T06:16:45;54.70;;;45.97;;
20067;SDS011;10194;50.824;7.134;2023-12-20T06:19:11;55.00;;;46.20;;
20067;SDS011;10194;50.824;7.134;2023-12-20T06:21:37;54.83;;;46.00;;
20067;SDS011;10194;50.824;7.134;2023-12-20T06:24:03;55.00;;;46.23;;
20067;SDS011;10194;50.824;7.134;2023-12-20T06:26:29;59.17;;;47.60;;
20067;SDS011;10194;50.824;7.134;2023-12-20T06:28:54;54.77;;;46.03;;
20067;SDS011;10194;50.824;7.134;2023-12-20T06:31:20;54.63;;;45.90;;
20067;SDS011;10194;50.824;7.134;2023-12-20T06:33:46;54.60;;;45.70;;
20067;SDS011;10194;50.824;7.134;2023-12-20T06:36:12;55.30;;;46.27;;
20067;SDS011;10194;50.824;7.134;2023-12-20T06:38:38;54.80;;;45.80;;
20067;SDS011;10194;50.824;7.134;2023-12-20T06:41:05;55.13;;;46.10;;
20067;SDS011;10194;50.824;7.134;2023-12-20T06:43:31;54.50;;;45.80;;
20067;SDS011;10194;50.824;7.134;2023-12-20T06:45:57;54.50;;;45.90;;
20067;SDS011;10194;50.824;7.134;2023-12-20T06:48:23;54.93;;;46.00;;
20067;SDS011;10194;50.824;7.134;2023-12-20T06:50:49;56.47;;;46.67;;
20067;SDS011;10194;50.824;7.134;2023-12-20T06:53:15;55.00;;;46.00;;
20067;SDS011;10194;50.824;7.134;2023-12-20T06:55:41;58.73;;;48.20;;
20067;SDS011;10194;50.824;7.134;2023-12-20T06:58:07;55.20;;;46.07;;
20067;SDS011;10194;50.824;7.134;2023-12-20T07:00:33;54.90;;;46.17;;
20067;SDS011;10194;50.824;7.134;2023-12-20T07:02:59;54.90;;;46.00;;
20067;SDS011;10194;50.824;7.134;2023-12-20T07:05:25;54.40;;;45.77;;
20067;SDS011;10194;50.824;7.134;2023-12-20T07:07:52;54.60;;;45.83;;
20067;SDS011;10194;50.824;7.134;2023-12-20T07:10:19;55.07;;;46.17;;
20067;SDS011;10194;50.824;7.134;2023-12-20T07:12:44;55.03;;;46.30;;
20067;SDS011;10194;50.824;7.134;2023-12-20T07:15:10;54.90;;;46.00;;
20067;SDS011;10194;50.824;7.134;2023-12-20T07:17:37;58.30;;;47.90;;
20067;SDS011;10194;50.824;7.134;2023-12-20T07:20:02;55.10;;;46.13;;
20067;SDS011;10194;50.824;7.134;2023-12-20T07:22:30;55.20;;;46.20;;
20067;SDS011;10194;50.824;7.134;2023-12-20T07:24:58;54.70;;;46.00;;
20067;SDS011;10194;50.824;7.134;2023-12-20T07:27:25;55.20;;;46.20;;
20067;SDS011;10194;50.824;7.134;2023-12-20T07:29:51;55.07;;;46.10;;
20067;SDS011;10194;50.824;7.134;2023-12-20T07:32:18;55.67;;;46.33;;
20067;SDS011;10194;50.824;7.134;2023-12-20T07:34:44;54.93;;;46.13;;
20067;SDS011;10194;50.824;7.134;2023-12-20T07:37:10;55.80;;;46.37;;
20067;SDS011;10194;50.824;7.134;2023-12-20T07:39:37;55.53;;;46.30;;
20067;SDS011;10194;50.824;7.134;2023-12-20T07:42:05;55.37;;;46.17;;
20067;SDS011;10194;50.824;7.134;2023-12-20T07:44:32;55.53;;;46.37;;
20067;SDS011;10194;50.824;7.134;2023-12-20T07:46:57;55.93;;;46.60;;
20067;SDS011;10194;50.824;7.134;2023-12-20T07:49:23;55.87;;;46.60;;
20067;SDS011;10194;50.824;7.134;2023-12-20T07:51:49;56.23;;;46.80;;
20067;SDS011;10194;50.824;7.134;2023-12-20T07:54:15;55.60;;;46.43;;
20067;SDS011;10194;50.824;7.134;2023-12-20T07:56:41;55.00;;;46.17;;
20067;SDS011;10194;50.824;7.134;2023-12-20T07:59:07;56.13;;;46.60;;
20067;SDS011;10194;50.824;7.134;2023-12-20T08:01:33;56.47;;;46.83;;
20067;SDS011;10194;50.824;7.134;2023-12-20T08:03:59;56.10;;;46.67;;
20067;SDS011;10194;50.824;7.134;2023-12-20T08:06:24;56.63;;;47.10;;
20067;SDS011;10194;50.824;7.134;2023-12-20T08:08:50;55.30;;;46.50;;
20067;SDS011;10194;50.824;7.134;2023-12-20T08:11:16;55.70;;;46.60;;
20067;SDS011;10194;50.824;7.134;2023-12-20T08:13:42;55.60;;;46.57;;
20067;SDS011;10194;50.824;7.134;2023-12-20T08:16:08;57.13;;;47.30;;
20067;SDS011;10194;50.824;7.134;2023-12-20T08:18:34;56.33;;;46.70;;
20067;SDS011;10194;50.824;7.134;2023-12-20T08:21:00;56.33;;;46.83;;
20067;SDS011;10194;50.824;7.134;2023-12-20T08:23:26;55.50;;;46.47;;
20067;SDS011;10194;50.824;7.134;2023-12-20T08:25:52;55.57;;;46.50;;
20067;SDS011;10194;50.824;7.134;2023-12-20T08:28:18;56.43;;;47.03;;
20067;SDS011;10194;50.824;7.134;2023-12-20T08:30:43;55.93;;;46.77;;
20067;SDS011;10194;50.824;7.134;2023-12-20T08:33:09;56.20;;;46.80;;
20067;SDS011;10194;50.824;7.134;2023-12-20T08:35:37;59.30;;;48.37;;
20067;SDS011;10194;50.824;7.134;2023-12-20T08:38:05;55.90;;;46.87;;
20067;SDS011;10194;50.824;7.134;2023-12-20T08:40:31;56.40;;;46.97;;
20067;SDS011;10194;50.824;7.134;2023-12-20T08:42:57;56.20;;;46.90;;
20067;SDS011;10194;50.824;7.134;2023-12-20T08:45:22;55.60;;;46.67;;
20067;SDS011;10194;50.824;7.134;2023-12-20T08:47:48;56.00;;;46.83;;
20067;SDS011;10194;50.824;7.134;2023-12-20T08:50:14;56.20;;;47.03;;
20067;SDS011;10194;50.824;7.134;2023-12-20T08:52:40;56.37;;;46.97;;
20067;SDS011;10194;50.824;7.134;2023-12-20T08:55:07;55.70;;;46.63;;
20067;SDS011;10194;50.824;7.134;2023-12-20T08:57:33;55.83;;;46.70;;
20067;SDS011;10194;50.824;7.134;2023-12-20T08:59:59;57.13;;;47.10;;
20067;SDS011;10194;50.824;7.134;2023-12-20T09:02:24;55.70;;;46.50;;
20067;SDS011;10194;50.824;7.134;2023-12-20T09:04:50;55.47;;;46.43;;
20067;SDS011;10194;50.824;7.134;2023-12-20T09:07:25;56.03;;;46.93;;
20067;SDS011;10194;50.824;7.134;2023-12-20T09:09:52;55.77;;;46.70;;
20067;SDS011;10194;50.824;7.134;2023-12-20T09:12:18;55.80;;;46.73;;
20067;SDS011;10194;50.824;7.134;2023-12-20T09:14:45;56.07;;;47.60;;
20067;SDS011;10194;50.824;7.134;2023-12-20T09:17:12;56.20;;;46.80;;
20067;SDS011;10194;50.824;7.134;2023-12-20T09:19:38;56.13;;;46.80;;
20067;SDS011;10194;50.824;7.134;2023-12-20T09:22:05;55.73;;;46.77;;
20067;SDS011;10194;50.824;7.134;2023-12-20T09:24:31;55.93;;;46.80;;
20067;SDS011;10194;50.824;7.134;2023-12-20T09:26:57;55.70;;;46.67;;
20067;SDS011;10194;50.824;7.134;2023-12-20T09:29:23;56.17;;;46.80;;
20067;SDS011;10194;50.824;7.134;2023-12-20T09:31:49;56.20;;;47.13;;
20067;SDS011;10194;50.824;7.134;2023-12-20T09:34:15;55.80;;;46.70;;
20067;SDS011;10194;50.824;7.134;2023-12-20T09:36:43;57.47;;;47.60;;
20067;SDS011;10194;50.824;7.134;2023-12-20T09:39:18;56.23;;;47.00;;
20067;SDS011;10194;50.824;7.134;2023-12-20T09:41:51;56.00;;;46.90;;
20067;SDS011;10194;50.824;7.134;2023-12-20T09:44:31;57.27;;;47.43;;
20067;SDS011;10194;50.824;7.134;2023-12-20T09:46:59;56.50;;;46.97;;
20067;SDS011;10194;50.824;7.134;2023-12-20T09:49:29;55.80;;;46.63;;
20067;SDS011;10194;50.824;7.134;2023-12-20T09:51:56;57.40;;;47.47;;
20067;SDS011;10194;50.824;7.134;2023-12-20T09:54:22;56.20;;;47.17;;
20067;SDS011;10194;50.824;7.134;2023-12-20T09:56:49;55.60;;;46.70;;
20067;SDS011;10194;50.824;7.134;2023-12-20T09:59:15;55.80;;;46.70;;
20067;SDS011;10194;50.824;7.134;2023-12-20T10:01:41;56.37;;;47.07;;
20067;SDS011;10194;50.824;7.134;2023-12-20T10:04:09;55.87;;;46.77;;
20067;SDS011;10194;50.824;7.134;2023-12-20T10:06:38;56.07;;;46.87;;
20067;SDS011;10194;50.824;7.134;2023-12-20T10:09:08;56.40;;;47.00;;
20067;SDS011;10194;50.824;7.134;2023-12-20T10:11:38;56.93;;;47.37;;
20067;SDS011;10194;50.824;7.134;2023-12-20T10:14:05;58.13;;;47.77;;
20067;SDS011;10194;50.824;7.134;2023-12-20T10:16:32;59.20;;;48.17;;
20067;SDS011;10194;50.824;7.134;2023-12-20T10:18:59;56.53;;;47.00;;
20067;SDS011;10194;50.824;7.134;2023-12-20T10:21:29;57.33;;;47.53;;
20067;SDS011;10194;50.824;7.134;2023-12-20T10:23:55;57.30;;;47.60;;
20067;SDS011;10194;50.824;7.134;2023-12-20T10:26:22;56.53;;;47.13;;
20067;SDS011;10194;50.824;7.134;2023-12-20T10:28:51;56.40;;;47.00;;
20067;SDS011;10194;50.824;7.134;2023-12-20T10:31:40;56.63;;;47.30;;
20067;SDS011;10194;50.824;7.134;2023-12-20T10:34:07;56.37;;;47.00;;
20067;SDS011;10194;50.824;7.134;2023-12-20T10:36:33;57.80;;;47.57;;
20067;SDS011;10194;50.824;7.134;2023-12-20T10:38:59;56.03;;;46.93;;
20067;SDS011;10194;50.824;7.134;2023-12-20T10:41:27;56.27;;;47.00;;
20067;SDS011;10194;50.824;7.134;2023-12-20T10:44:04;56.20;;;46.93;;
20067;SDS011;10194;50.824;7.134;2023-12-20T10:46:30;61.57;;;48.87;;
20067;SDS011;10194;50.824;7.134;2023-12-20T10:48:57;56.37;;;46.97;;
20067;SDS011;10194;50.824;7.134;2023-12-20T10:51:24;56.80;;;47.23;;
20067;SDS011;10194;50.824;7.134;2023-12-20T10:53:55;56.57;;;47.13;;
20067;SDS011;10194;50.824;7.134;2023-12-20T10:56:21;57.27;;;47.57;;
20067;SDS011;10194;50.824;7.134;2023-12-20T10:58:50;56.20;;;47.00;;
20067;SDS011;10194;50.824;7.134;2023-12-20T11:01:16;56.40;;;47.10;;
20067;SDS011;10194;50.824;7.134;2023-12-20T11:03:51;55.97;;;46.97;;
20067;SDS011;10194;50.824;7.134;2023-12-20T11:06:29;55.60;;;46.70;;
20067;SDS011;10194;50.824;7.134;2023-12-20T11:09:20;56.57;;;47.00;;
20067;SDS011;10194;50.824;7.134;2023-12-20T11:17:08;56.40;;;47.00;;
20067;SDS011;10194;50.824;7.134;2023-12-20T11:19:39;56.93;;;47.20;;
20067;SDS011;10194;50.824;7.134;2023-12-20T11:22:21;56.43;;;46.93;;
20067;SDS011;10194;50.824;7.134;2023-12-20T11:24:47;57.20;;;47.47;;
20067;SDS011;10194;50.824;7.134;2023-12-20T11:27:14;56.30;;;47.07;;
20067;SDS011;10194;50.824;7.134;2023-12-20T11:29:40;58.50;;;47.83;;
20067;SDS011;10194;50.824;7.134;2023-12-20T11:34:54;56.97;;;47.33;;
20067;SDS011;10194;50.824;7.134;2023-12-20T11:37:31;56.97;;;47.37;;
20067;SDS011;10194;50.824;7.134;2023-12-20T11:40:00;56.77;;;47.20;;
20067;SDS011;10194;50.824;7.134;2023-12-20T11:42:38;57.50;;;47.53;;
20067;SDS011;10194;50.824;7.134;2023-12-20T11:45:05;57.37;;;47.37;;
20067;SDS011;10194;50.824;7.134;2023-12-20T11:47:34;57.10;;;47.40;;
20067;SDS011;10194;50.824;7.134;2023-12-20T11:50:00;57.00;;;47.30;;
20067;SDS011;10194;50.824;7.134;2023-12-20T11:52:28;56.50;;;47.00;;
20067;SDS011;10194;50.824;7.134;2023-12-20T11:54:55;56.50;;;47.10;;
20067;SDS011;10194;50.824;7.134;2023-12-20T11:57:22;57.10;;;47.33;;
20067;SDS011;10194;50.824;7.134;2023-12-20T11:59:48;57.47;;;47.57;;
20067;SDS011;10194;50.824;7.134;2023-12-20T12:02:13;56.67;;;47.20;;
20067;SDS011;10194;50.824;7.134;2023-12-20T12:04:43;56.73;;;47.23;;
20067;SDS011;10194;50.824;7.134;2023-12-20T12:07:08;57.03;;;47.40;;
20067;SDS011;10194;50.824;7.134;2023-12-20T12:09:34;58.67;;;48.27;;
20067;SDS011;10194;50.824;7.134;2023-12-20T12:12:00;57.10;;;47.40;;
20067;SDS011;10194;50.824;7.134;2023-12-20T12:14:26;56.57;;;47.17;;
20067;SDS011;10194;50.824;7.134;2023-12-20T12:16:52;56.47;;;47.00;;
20067;SDS011;10194;50.824;7.134;2023-12-20T12:19:22;56.70;;;47.20;;
20067;SDS011;10194;50.824;7.134;2023-12-20T12:21:50;56.60;;;47.10;;
20067;SDS011;10194;50.824;7.134;2023-12-20T12:24:19;56.60;;;47.10;;
20067;SDS011;10194;50.824;7.134;2023-12-20T12:26:51;57.03;;;47.30;;
20067;SDS011;10194;50.824;7.134;2023-12-20T12:29:17;56.50;;;47.07;;
20067;SDS011;10194;50.824;7.134;2023-12-20T12:31:43;56.43;;;47.17;;
20067;SDS011;10194;50.824;7.134;2023-12-20T12:34:09;56.83;;;47.13;;
20067;SDS011;10194;50.824;7.134;2023-12-20T12:36:35;56.47;;;47.03;;
20067;SDS011;10194;50.824;7.134;2023-12-20T12:39:03;57.27;;;47.47;;
20067;SDS011;10194;50.824;7.134;2023-12-20T12:41:30;56.10;;;46.90;;
20067;SDS011;10194;50.824;7.134;2023-12-20T12:43:55;56.60;;;47.10;;
20067;SDS011;10194;50.824;7.134;2023-12-20T12:46:21;58.37;;;47.80;;
20067;SDS011;10194;50.824;7.134;2023-12-20T12:48:47;59.40;;;48.40;;
20067;SDS011;10194;50.824;7.134;2023-12-20T12:51:15;56.47;;;47.17;;
20067;SDS011;10194;50.824;7.134;2023-12-20T12:53:41;57.07;;;47.30;;
20067;SDS011;10194;50.824;7.134;2023-12-20T12:56:07;56.90;;;47.23;;
20067;SDS011;10194;50.824;7.134;2023-12-20T12:58:33;56.80;;;47.13;;
20067;SDS011;10194;50.824;7.134;2023-12-20T13:00:59;56.70;;;47.10;;
20067;SDS011;10194;50.824;7.134;2023-12-20T13:03:25;57.03;;;47.37;;
20067;SDS011;10194;50.824;7.134;2023-12-20T13:05:50;59.03;;;48.37;;
20067;SDS011;10194;50.824;7.134;2023-12-20T13:08:16;57.50;;;47.73;;
20067;SDS011;10194;50.824;7.134;2023-12-20T13:10:42;58.37;;;48.10;;
20067;SDS011;10194;50.824;7.134;2023-12-20T13:13:08;57.30;;;47.40;;
20067;SDS011;10194;50.824;7.134;2023-12-20T13:15:34;58.93;;;48.23;;
20067;SDS011;10194;50.824;7.134;2023-12-20T13:18:00;57.50;;;47.53;;
20067;SDS011;10194;50.824;7.134;2023-12-20T13:20:26;56.97;;;47.23;;
20067;SDS011;10194;50.824;7.134;2023-12-20T13:22:51;56.73;;;47.17;;
20067;SDS011;10194;50.824;7.134;2023-12-20T13:25:17;57.07;;;47.30;;
20067;SDS011;10194;50.824;7.134;2023-12-20T13:27:43;56.87;;;47.27;;
20067;SDS011;10194;50.824;7.134;2023-12-20T13:30:09;57.10;;;47.47;;
20067;SDS011;10194;50.824;7.134;2023-12-20T13:32:35;57.63;;;47.63;;
20067;SDS011;10194;50.824;7.134;2023-12-20T13:35:01;56.70;;;47.10;;
20067;SDS011;10194;50.824;7.134;2023-12-20T13:37:26;57.00;;;47.33;;
20067;SDS011;10194;50.824;7.134;2023-12-20T13:39:52;56.30;;;46.97;;
20067;SDS011;10194;50.824;7.134;2023-12-20T13:42:18;56.70;;;47.03;;
20067;SDS011;10194;50.824;7.134;2023-12-20T13:44:45;56.63;;;46.90;;
20067;SDS011;10194;50.824;7.134;2023-12-20T13:47:11;57.30;;;47.40;;
20067;SDS011;10194;50.824;7.134;2023-12-20T13:49:37;56.63;;;47.03;;
20067;SDS011;10194;50.824;7.134;2023-12-20T13:52:03;57.07;;;47.27;;
20067;SDS011;10194;50.824;7.134;2023-12-20T13:54:29;56.70;;;47.20;;
20067;SDS011;10194;50.824;7.134;2023-12-20T13:56:55;56.47;;;47.00;;
20067;SDS011;10194;50.824;7.134;2023-12-20T13:59:22;56.37;;;47.00;;
20067;SDS011;10194;50.824;7.134;2023-12-20T14:01:48;56.63;;;47.00;;
20067;SDS011;10194;50.824;7.134;2023-12-20T14:04:15;58.03;;;47.67;;
20067;SDS011;10194;50.824;7.134;2023-12-20T14:06:41;56.40;;;47.00;;
20067;SDS011;10194;50.824;7.134;2023-12-20T14:09:07;57.60;;;47.43;;
20067;SDS011;10194;50.824;7.134;2023-12-20T14:11:33;56.93;;;47.13;;
20067;SDS011;10194;50.824;7.134;2023-12-20T14:13:59;56.33;;;47.00;;
20067;SDS011;10194;50.824;7.134;2023-12-20T14:16:26;60.80;;;48.80;;
20067;SDS011;10194;50.824;7.134;2023-12-20T14:18:52;56.93;;;47.30;;
20067;SDS011;10194;50.824;7.134;2023-12-20T14:21:22;56.57;;;47.20;;
20067;SDS011;10194;50.824;7.134;2023-12-20T14:23:48;56.83;;;47.20;;
20067;SDS011;10194;50.824;7.134;2023-12-20T14:26:14;56.50;;;46.90;;